Time;durP1;ratioP1;P1;durP2;ratioP2;P2;SDS_P1;SDS_P2;PMS_P1;PMS_P2;Temp;Humidity;BMP_temperature;BMP_pressure;BME280_temperature;BME280_humidity;BME280_pressure;Samples;Min_cycle;Max_cycle;Signal;HPM_P1;HPM_P2
2024/04/05 00:17:14;;;;;;;2.20;1.37;;;12.10;99.90;;;;;;5074704;28;20809;-88
2024/04/05 00:19:43;;;;;;;0.50;0.40;;;12.10;99.90;;;;;;5073169;28;20567;-87
2024/04/05 00:22:09;;;;;;;15.50;2.27;;;12.10;99.90;;;;;;5072401;28;21058;-87
2024/04/05 00:24:35;;;;;;;0.77;0.77;;;12.10;99.90;;;;;;5074100;28;20444;-88
2024/04/05 00:27:02;;;;;;;0.77;0.77;;;12.10;99.90;;;;;;5073671;28;20436;-87
2024/04/05 00:29:27;;;;;;;0.50;0.40;;;12.10;99.90;;;;;;5074462;28;20209;-87
2024/04/05 00:31:54;;;;;;;0.50;0.40;;;12.00;99.90;;;;;;5075657;28;20433;-88
2024/04/05 00:34:20;;;;;;;0.80;0.50;;;12.00;99.90;;;;;;5075436;28;20205;-87
2024/04/05 00:36:48;;;;;;;0.60;0.50;;;11.90;99.90;;;;;;5074800;28;20808;-87
2024/04/05 00:39:14;;;;;;;2.87;0.77;;;11.90;99.90;;;;;;5075352;28;20218;-87
2024/04/05 00:41:41;;;;;;;1.60;0.70;;;11.90;99.90;;;;;;5074376;28;20464;-88
2024/04/05 00:44:07;;;;;;;0.50;0.40;;;11.80;99.90;;;;;;5072918;28;20197;-87
2024/04/05 00:46:35;;;;;;;2.97;1.77;;;11.80;99.90;;;;;;5073133;28;20486;-87
2024/04/05 00:49:01;;;;;;;0.50;0.40;;;11.80;99.90;;;;;;5073561;28;20894;-87
2024/04/05 00:51:29;;;;;;;0.70;0.40;;;11.70;99.90;;;;;;5073701;28;20460;-87
2024/04/05 00:53:57;;;;;;;0.50;0.40;;;11.70;99.90;;;;;;5074209;28;20433;-87
2024/04/05 00:56:25;;;;;;;0.70;0.70;;;11.70;99.90;;;;;;5073780;28;20448;-87
2024/04/05 00:58:51;;;;;;;0.50;0.40;;;11.70;99.90;;;;;;5073911;28;20456;-87
2024/04/05 01:01:19;;;;;;;0.50;0.40;;;11.70;99.90;;;;;;5073644;28;20498;-86
2024/04/05 01:03:47;;;;;;;0.50;0.40;;;11.70;99.90;;;;;;5073744;28;20448;-87
2024/04/05 01:06:14;;;;;;;0.60;0.50;;;11.70;99.90;;;;;;5074349;28;20512;-87
2024/04/05 01:08:40;;;;;;;0.50;0.40;;;11.60;99.90;;;;;;5092016;28;20437;-86
2024/04/05 01:11:08;;;;;;;0.50;0.40;;;11.60;99.90;;;;;;5096971;28;20429;-86
2024/04/05 01:13:34;;;;;;;0.50;0.50;;;11.70;99.90;;;;;;5096954;28;20416;-87
2024/04/05 01:16:06;;;;;;;0.50;0.40;;;11.60;99.90;;;;;;5096714;28;20456;-86
2024/04/05 01:18:32;;;;;;;0.50;0.40;;;11.60;99.90;;;;;;5084777;28;20456;-86
2024/04/05 01:21:01;;;;;;;3.90;3.70;;;11.50;99.90;;;;;;5095703;28;20463;-87
2024/04/05 01:23:28;;;;;;;0.50;0.50;;;11.50;99.90;;;;;;5093975;28;20432;-87
2024/04/05 01:25:57;;;;;;;1.30;0.90;;;11.50;99.90;;;;;;5072604;28;20436;-87
2024/04/05 01:28:23;;;;;;;0.80;0.80;;;11.50;99.90;;;;;;5071095;28;20492;-87
2024/04/05 01:30:50;;;;;;;0.70;0.70;;;11.50;99.90;;;;;;5072709;28;20452;-87
2024/04/05 01:33:15;;;;;;;0.50;0.40;;;11.40;99.90;;;;;;5072500;28;20542;-86
2024/04/05 01:35:43;;;;;;;0.60;0.50;;;11.50;99.90;;;;;;5071300;28;20482;-87
2024/04/05 01:38:08;;;;;;;0.77;0.57;;;11.50;99.90;;;;;;5072178;28;20216;-88
2024/04/05 01:40:36;;;;;;;0.60;0.53;;;11.60;99.90;;;;;;5071552;28;20562;-88
2024/04/05 01:43:04;;;;;;;0.50;0.40;;;11.60;99.90;;;;;;5072067;28;20665;-88
2024/04/05 01:45:32;;;;;;;0.60;0.60;;;11.60;99.90;;;;;;5072124;28;21031;-88
2024/04/05 01:47:57;;;;;;;1.27;1.07;;;11.70;99.90;;;;;;5074131;28;20464;-87
2024/04/05 01:50:24;;;;;;;0.50;0.40;;;11.70;99.90;;;;;;5072473;28;20433;-86
2024/04/05 01:52:50;;;;;;;4.20;2.30;;;11.70;99.90;;;;;;5072310;28;20205;-87
2024/04/05 01:55:17;;;;;;;2.40;0.90;;;11.70;99.90;;;;;;5072330;28;20437;-87
2024/04/05 01:57:43;;;;;;;2.30;2.07;;;11.70;99.90;;;;;;5071041;28;20457;-87
2024/04/05 02:00:14;;;;;;;0.83;0.80;;;11.70;99.90;;;;;;5072371;28;20443;-87
2024/04/05 02:02:40;;;;;;;0.50;0.40;;;11.80;99.90;;;;;;5072089;28;20582;-87
2024/04/05 02:05:07;;;;;;;2.60;0.70;;;11.80;99.90;;;;;;5072052;28;20444;-87
2024/04/05 02:07:33;;;;;;;1.13;1.03;;;11.80;99.90;;;;;;5070909;28;20218;-87
2024/04/05 02:10:00;;;;;;;0.50;0.40;;;11.90;99.90;;;;;;5072419;28;21137;-87
2024/04/05 02:12:29;;;;;;;0.50;0.40;;;11.90;99.90;;;;;;5072394;28;20198;-87
2024/04/05 02:14:55;;;;;;;0.90;0.63;;;11.90;99.90;;;;;;5074310;28;20523;-86
2024/04/05 02:17:23;;;;;;;0.50;0.40;;;11.90;99.90;;;;;;5075503;28;20453;-87
2024/04/05 02:19:50;;;;;;;2.00;1.80;;;12.00;99.90;;;;;;5076332;28;20534;-87
2024/04/05 02:22:16;;;;;;;0.60;0.50;;;12.00;99.90;;;;;;5076197;28;20569;-86
2024/04/05 02:24:43;;;;;;;0.97;0.97;;;12.00;99.90;;;;;;5075844;28;20447;-87
2024/04/05 02:27:09;;;;;;;0.50;0.40;;;12.00;99.90;;;;;;5075860;28;20431;-87
2024/04/05 02:29:37;;;;;;;1.43;1.33;;;12.10;99.90;;;;;;5075906;28;20432;-87
2024/04/05 02:32:03;;;;;;;1.57;1.00;;;12.00;99.90;;;;;;5075754;28;20435;-87
2024/04/05 02:34:33;;;;;;;0.50;0.50;;;12.00;99.90;;;;;;5075875;28;20519;-87
2024/04/05 02:36:59;;;;;;;0.50;0.40;;;12.00;99.90;;;;;;5075628;28;20443;-86
2024/04/05 02:39:26;;;;;;;0.60;0.60;;;12.00;99.90;;;;;;5075396;28;20471;-86
2024/04/05 02:41:53;;;;;;;4.30;2.00;;;12.00;99.90;;;;;;5075089;28;20468;-86
2024/04/05 02:44:24;;;;;;;2.07;1.97;;;12.00;99.90;;;;;;5075279;28;20523;-86
2024/04/05 02:46:50;;;;;;;0.60;0.60;;;12.00;99.90;;;;;;5074051;28;20448;-86
2024/04/05 02:49:17;;;;;;;0.50;0.40;;;12.00;99.90;;;;;;5075382;28;20465;-86
2024/04/05 02:51:44;;;;;;;0.50;0.40;;;12.00;99.90;;;;;;5075465;28;20429;-86
2024/04/05 02:54:11;;;;;;;6.47;1.07;;;12.00;99.90;;;;;;5075475;28;20514;-87
2024/04/05 02:56:37;;;;;;;2.13;2.03;;;12.00;99.90;;;;;;5075656;28;20444;-87
2024/04/05 02:59:04;;;;;;;0.63;0.60;;;12.00;99.90;;;;;;5075155;28;20453;-86
2024/04/05 03:01:32;;;;;;;0.50;0.40;;;12.10;99.90;;;;;;5075641;28;20529;-86
2024/04/05 03:03:58;;;;;;;5.20;1.23;;;12.10;99.90;;;;;;5075069;28;20532;-87
2024/04/05 03:06:24;;;;;;;0.83;0.80;;;12.10;99.90;;;;;;5076411;28;20433;-87
2024/04/05 03:08:53;;;;;;;7.80;1.47;;;12.20;99.90;;;;;;5076281;28;20459;-87
2024/04/05 03:11:20;;;;;;;0.50;0.50;;;12.20;99.90;;;;;;5075299;28;20198;-87
2024/04/05 03:13:47;;;;;;;6.27;0.97;;;12.30;99.90;;;;;;5074966;28;20472;-87
2024/04/05 03:16:13;;;;;;;0.97;0.50;;;12.30;99.90;;;;;;5074167;28;20433;-87
2024/04/05 03:18:40;;;;;;;0.50;0.40;;;12.40;99.90;;;;;;5075259;28;20835;-87
2024/04/05 03:21:06;;;;;;;0.50;0.40;;;12.40;99.90;;;;;;5075123;28;20484;-87
2024/04/05 03:23:32;;;;;;;1.40;1.30;;;12.40;99.90;;;;;;5075199;28;20439;-87
2024/04/05 03:26:00;;;;;;;0.50;0.40;;;12.30;99.90;;;;;;5073757;28;20441;-87
2024/04/05 03:28:26;;;;;;;3.17;2.30;;;12.30;99.90;;;;;;5074298;28;20547;-87
2024/04/05 03:30:52;;;;;;;0.50;0.50;;;12.30;99.90;;;;;;5074528;28;20440;-87
2024/04/05 03:33:19;;;;;;;1.13;0.70;;;12.30;99.90;;;;;;5075091;28;20477;-88
2024/04/05 03:35:45;;;;;;;17.80;1.77;;;12.30;99.90;;;;;;5074847;28;20198;-88
2024/04/05 03:38:11;;;;;;;0.50;0.40;;;12.30;99.90;;;;;;5074931;28;20835;-88
2024/04/05 03:40:39;;;;;;;1.33;0.70;;;12.40;99.90;;;;;;5075016;28;20195;-87
2024/04/05 03:43:08;;;;;;;1.23;0.73;;;12.40;99.90;;;;;;5078394;28;20434;-87
2024/04/05 03:45:34;;;;;;;0.50;0.40;;;12.40;99.90;;;;;;5077075;28;20433;-87
2024/04/05 03:48:00;;;;;;;0.50;0.40;;;12.40;99.90;;;;;;5077249;28;20836;-88
2024/04/05 03:50:26;;;;;;;0.50;0.50;;;12.40;99.90;;;;;;5076783;28;20194;-87
2024/04/05 03:52:54;;;;;;;0.50;0.40;;;12.40;99.90;;;;;;5075839;28;20955;-87
2024/04/05 03:55:21;;;;;;;1.37;0.97;;;12.30;99.90;;;;;;5079228;28;20471;-86
2024/04/05 03:57:52;;;;;;;1.43;0.60;;;12.30;99.90;;;;;;5082525;28;20456;-87
2024/04/05 04:00:19;;;;;;;0.50;0.40;;;12.30;99.90;;;;;;5079018;28;21122;-87
2024/04/05 04:02:51;;;;;;;0.50;0.40;;;12.30;99.90;;;;;;5077395;28;20544;-87
2024/04/05 04:05:17;;;;;;;0.60;0.60;;;12.30;99.90;;;;;;5078079;28;20800;-87
2024/04/05 04:07:43;;;;;;;2.80;0.47;;;12.30;99.90;;;;;;5074206;28;20457;-87
2024/04/05 04:10:11;;;;;;;0.90;0.80;;;12.30;99.90;;;;;;5074462;28;20480;-88
2024/04/05 04:12:38;;;;;;;3.60;0.80;;;12.30;99.90;;;;;;5074511;28;20437;-87
2024/04/05 04:15:05;;;;;;;6.10;1.13;;;12.30;99.90;;;;;;5072429;28;20448;-87
2024/04/05 04:17:34;;;;;;;0.80;0.60;;;12.30;99.90;;;;;;5073979;28;20456;-87
2024/04/05 04:20:04;;;;;;;0.50;0.40;;;12.30;99.90;;;;;;5074193;28;20429;-87
2024/04/05 04:22:33;;;;;;;1.90;1.17;;;12.30;99.90;;;;;;5073801;28;20469;-87
2024/04/05 04:24:59;;;;;;;1.10;1.00;;;12.40;99.90;;;;;;5073923;28;20531;-87
2024/04/05 04:27:27;;;;;;;0.60;0.60;;;12.40;99.90;;;;;;5074223;28;20461;-87
2024/04/05 04:29:54;;;;;;;1.13;1.00;;;12.40;99.90;;;;;;5073952;28;20437;-87
2024/04/05 04:32:21;;;;;;;2.97;0.60;;;12.40;99.90;;;;;;5074010;28;20474;-87
2024/04/05 04:34:48;;;;;;;0.50;0.50;;;12.50;99.90;;;;;;5073949;28;20440;-87
2024/04/05 04:37:17;;;;;;;0.50;0.50;;;12.40;99.90;;;;;;5074310;28;20436;-87
2024/04/05 04:39:46;;;;;;;0.60;0.60;;;12.30;99.90;;;;;;5073881;28;20477;-88
2024/04/05 04:42:17;;;;;;;1.83;0.90;;;12.20;99.90;;;;;;5073289;28;20468;-87
2024/04/05 04:44:43;;;;;;;1.67;1.30;;;12.20;99.90;;;;;;5069210;28;20600;-89
2024/04/05 04:47:09;;;;;;;0.70;0.67;;;12.10;99.90;;;;;;5062485;28;20502;-88
2024/04/05 04:49:35;;;;;;;3.13;1.90;;;12.10;99.90;;;;;;5069656;28;20516;-88
2024/04/05 04:52:04;;;;;;;0.50;0.40;;;12.00;99.90;;;;;;5055891;28;20438;-87
2024/04/05 04:54:32;;;;;;;0.50;0.40;;;12.00;99.90;;;;;;5067636;28;20437;-85
2024/04/05 04:56:59;;;;;;;19.10;0.97;;;12.00;99.90;;;;;;5075146;28;20441;-87
2024/04/05 04:59:28;;;;;;;0.50;0.40;;;11.90;99.90;;;;;;5079118;28;20504;-87
2024/04/05 05:01:56;;;;;;;0.50;0.40;;;11.90;99.90;;;;;;5072401;28;20465;-87
2024/04/05 05:04:22;;;;;;;0.50;0.40;;;11.90;99.90;;;;;;5064728;28;20438;-87
2024/04/05 05:06:50;;;;;;;0.50;0.40;;;11.80;99.90;;;;;;5057089;28;20433;-87
2024/04/05 05:09:18;;;;;;;0.70;0.67;;;11.80;99.90;;;;;;5070232;28;21102;-87
2024/04/05 05:11:46;;;;;;;0.50;0.40;;;11.80;99.90;;;;;;5083802;28;20582;-86
2024/04/05 05:14:12;;;;;;;1.60;1.50;;;11.80;99.90;;;;;;5085409;28;20433;-86
2024/04/05 05:16:39;;;;;;;0.50;0.40;;;11.90;99.90;;;;;;5065838;28;20758;-86
2024/04/05 05:19:07;;;;;;;0.50;0.50;;;11.90;99.90;;;;;;5056240;28;20824;-85
2024/04/05 05:21:36;;;;;;;0.80;0.80;;;11.90;99.90;;;;;;5056235;28;20505;-86
2024/04/05 05:24:02;;;;;;;0.50;0.40;;;11.90;99.90;;;;;;5055819;28;20450;-85
2024/04/05 05:26:30;;;;;;;0.90;0.63;;;11.80;99.90;;;;;;5067540;28;20491;-87
2024/04/05 05:28:56;;;;;;;0.50;0.40;;;11.90;99.90;;;;;;5076002;28;20508;-87
2024/04/05 05:31:23;;;;;;;1.30;0.80;;;11.90;99.90;;;;;;5068592;28;20425;-86
2024/04/05 05:33:49;;;;;;;0.50;0.40;;;11.90;99.90;;;;;;5075835;28;20445;-86
2024/04/05 05:36:16;;;;;;;0.50;0.40;;;11.80;99.90;;;;;;5081535;28;20555;-88
2024/04/05 05:38:42;;;;;;;0.50;0.40;;;11.80;99.90;;;;;;5077185;28;20469;-93
2024/04/05 05:41:11;;;;;;;1.43;1.33;;;11.80;99.90;;;;;;5085389;28;20428;-86
2024/04/05 05:43:38;;;;;;;0.93;0.93;;;11.90;99.90;;;;;;5092170;28;20435;-84
2024/04/05 05:46:06;;;;;;;0.50;0.40;;;11.90;99.90;;;;;;5076575;28;20440;-87
2024/04/05 05:48:34;;;;;;;1.00;0.90;;;11.90;99.90;;;;;;5059311;28;20501;-86
2024/04/05 05:51:04;;;;;;;0.50;0.40;;;11.90;99.90;;;;;;5079759;28;20642;-86
2024/04/05 05:53:31;;;;;;;0.50;0.40;;;11.90;99.90;;;;;;5079678;28;20432;-85
2024/04/05 05:55:58;;;;;;;0.60;0.50;;;12.00;99.90;;;;;;5079413;28;20413;-85
2024/04/05 05:58:24;;;;;;;14.37;2.30;;;12.00;99.90;;;;;;5079967;28;20463;-84
2024/04/05 06:00:53;;;;;;;0.50;0.40;;;12.00;99.90;;;;;;5080410;28;20428;-86
2024/04/05 06:03:19;;;;;;;0.50;0.40;;;12.00;99.90;;;;;;5080616;28;20479;-86
2024/04/05 06:05:52;;;;;;;0.60;0.60;;;12.00;99.90;;;;;;5082007;28;20815;-88
2024/04/05 06:08:18;;;;;;;1.40;0.97;;;12.00;99.90;;;;;;5089637;28;20232;-87
2024/04/05 06:10:55;;;;;;;4.50;1.83;;;12.10;99.90;;;;;;5101246;28;20437;-87
2024/04/05 06:13:21;;;;;;;0.50;0.40;;;12.10;99.90;;;;;;5100393;28;20194;-87
2024/04/05 06:15:54;;;;;;;1.17;0.50;;;12.10;99.90;;;;;;5099567;28;20452;-85
2024/04/05 06:18:20;;;;;;;1.07;0.97;;;12.10;99.90;;;;;;5099787;28;20445;-86
2024/04/05 06:20:53;;;;;;;0.60;0.60;;;12.10;99.90;;;;;;5093118;28;20450;-90
2024/04/05 06:23:19;;;;;;;0.50;0.50;;;12.10;99.90;;;;;;5093326;28;20222;-92
2024/04/05 06:25:52;;;;;;;2.60;0.93;;;12.10;99.90;;;;;;5100555;28;20488;-90
2024/04/05 06:28:18;;;;;;;0.50;0.40;;;12.20;99.90;;;;;;5088891;28;20455;-89
2024/04/05 06:30:45;;;;;;;1.10;0.70;;;12.30;99.90;;;;;;5094286;28;20433;-87
2024/04/05 06:33:14;;;;;;;0.50;0.50;;;12.50;99.90;;;;;;5086711;28;20460;-87
2024/04/05 06:35:42;;;;;;;0.50;0.50;;;12.50;99.90;;;;;;5087195;28;20443;-87
2024/04/05 06:38:11;;;;;;;0.80;0.50;;;12.60;99.90;;;;;;5088168;28;20453;-86
2024/04/05 06:40:39;;;;;;;1.93;1.03;;;12.70;99.90;;;;;;5083812;28;20436;-88
2024/04/05 06:43:06;;;;;;;0.50;0.40;;;12.70;99.90;;;;;;5059434;28;20468;-86
2024/04/05 06:45:36;;;;;;;0.50;0.40;;;12.70;99.90;;;;;;5068860;28;20441;-86
2024/04/05 06:48:02;;;;;;;1.37;0.67;;;12.70;99.90;;;;;;5070752;28;20454;-87
2024/04/05 06:50:33;;;;;;;0.50;0.40;;;12.80;99.90;;;;;;5067060;28;20441;-86
2024/04/05 06:52:59;;;;;;;0.60;0.60;;;12.90;99.90;;;;;;5060112;28;20431;-87
2024/04/05 06:55:26;;;;;;;1.10;1.00;;;13.00;99.90;;;;;;5055037;28;20438;-87
2024/04/05 06:57:52;;;;;;;0.77;0.60;;;13.10;99.90;;;;;;5056166;28;20458;-87
2024/04/05 07:00:20;;;;;;;1.47;0.90;;;13.20;99.90;;;;;;5062202;28;20460;-87
2024/04/05 07:02:47;;;;;;;0.90;0.80;;;13.20;99.90;;;;;;5063461;28;20849;-87
2024/04/05 07:05:15;;;;;;;0.60;0.53;;;13.40;99.90;;;;;;5061805;28;20529;-87
2024/04/05 07:07:45;;;;;;;0.50;0.40;;;13.70;99.90;;;;;;5060776;28;20459;-87
2024/04/05 07:10:12;;;;;;;1.53;0.63;;;13.80;99.90;;;;;;5062674;28;20435;-86
2024/04/05 07:12:41;;;;;;;2.80;0.60;;;13.90;99.90;;;;;;5059565;28;20431;-88
2024/04/05 07:15:12;;;;;;;0.50;0.40;;;14.10;99.90;;;;;;5060601;28;20447;-86
2024/04/05 07:17:40;;;;;;;0.50;0.40;;;14.40;99.90;;;;;;5060160;28;20477;-87
2024/04/05 07:20:11;;;;;;;0.60;0.47;;;14.60;99.90;;;;;;5061778;28;20464;-87
2024/04/05 07:22:39;;;;;;;0.50;0.50;;;14.70;99.90;;;;;;5061053;28;20532;-84
2024/04/05 07:25:08;;;;;;;0.50;0.40;;;14.60;99.90;;;;;;5061526;28;20462;-88
2024/04/05 07:27:35;;;;;;;0.70;0.70;;;14.60;99.90;;;;;;5060754;28;20567;-87
2024/04/05 07:30:04;;;;;;;0.50;0.40;;;14.60;99.90;;;;;;5060322;28;20443;-87
2024/04/05 07:32:34;;;;;;;0.60;0.60;;;14.80;99.90;;;;;;5067611;28;20430;-84
2024/04/05 07:35:00;;;;;;;0.50;0.30;;;14.90;99.90;;;;;;5077077;28;20497;-85
2024/04/05 07:37:27;;;;;;;1.20;1.00;;;14.60;99.90;;;;;;5077752;28;20507;-86
2024/04/05 07:39:57;;;;;;;1.17;0.63;;;14.60;99.90;;;;;;5065984;28;20223;-86
2024/04/05 07:42:30;;;;;;;1.90;0.97;;;14.50;99.90;;;;;;5067397;28;20472;-86
2024/04/05 07:44:58;;;;;;;0.80;0.70;;;14.40;99.90;;;;;;5064776;28;20474;-85
2024/04/05 07:47:27;;;;;;;0.90;0.70;;;14.30;99.90;;;;;;5062977;28;20466;-85
2024/04/05 07:49:53;;;;;;;1.67;1.27;;;14.50;99.90;;;;;;5063383;28;20466;-86
2024/04/05 07:52:21;;;;;;;1.60;0.90;;;14.50;99.90;;;;;;5062971;28;20437;-85
2024/04/05 07:54:49;;;;;;;4.10;1.60;;;14.50;99.90;;;;;;5060558;28;20201;-87
2024/04/05 07:57:15;;;;;;;0.60;0.40;;;14.50;99.90;;;;;;5059817;28;20449;-85
2024/04/05 07:59:47;;;;;;;0.50;0.40;;;14.70;99.90;;;;;;5060085;28;20440;-86
2024/04/05 08:02:14;;;;;;;0.50;0.40;;;14.90;99.90;;;;;;5059520;28;20475;-86
2024/04/05 08:04:40;;;;;;;1.20;0.93;;;15.00;99.90;;;;;;5059014;28;20448;-86
2024/04/05 08:07:07;;;;;;;1.00;0.60;;;15.30;99.90;;;;;;5060665;28;20436;-86
2024/04/05 08:09:34;;;;;;;2.07;0.67;;;15.30;99.90;;;;;;5059349;28;20499;-86
2024/04/05 08:12:01;;;;;;;0.67;0.67;;;15.30;99.90;;;;;;5059176;28;20957;-86
2024/04/05 08:14:29;;;;;;;0.50;0.40;;;15.30;99.90;;;;;;5058777;28;20202;-87
2024/04/05 08:16:57;;;;;;;0.60;0.60;;;15.10;99.90;;;;;;5060914;28;20532;-87
2024/04/05 08:19:24;;;;;;;2.47;1.77;;;14.90;99.90;;;;;;5060149;28;20441;-85
2024/04/05 08:21:51;;;;;;;1.33;0.93;;;14.80;99.90;;;;;;5062386;28;20907;-86
2024/04/05 08:24:18;;;;;;;5.03;0.90;;;14.70;99.90;;;;;;5059435;28;20437;-86
2024/04/05 08:26:47;;;;;;;0.50;0.40;;;14.70;99.90;;;;;;5055467;28;21128;-87
2024/04/05 08:29:12;;;;;;;0.67;0.53;;;14.60;99.90;;;;;;5055738;28;20460;-86
2024/04/05 08:31:39;;;;;;;0.53;0.50;;;14.60;99.90;;;;;;5058982;28;20808;-85
2024/04/05 08:34:07;;;;;;;0.50;0.50;;;14.60;99.90;;;;;;5058729;28;20292;-85
2024/04/05 08:36:34;;;;;;;0.50;0.50;;;14.60;99.90;;;;;;5058622;28;20946;-86
2024/04/05 08:39:00;;;;;;;0.70;0.67;;;14.60;99.90;;;;;;5059903;28;20457;-86
2024/04/05 08:41:30;;;;;;;2.00;0.97;;;14.50;99.90;;;;;;5062821;28;20445;-85
2024/04/05 08:43:58;;;;;;;4.20;1.17;;;14.50;99.90;;;;;;5063439;28;20767;-84
2024/04/05 08:46:26;;;;;;;0.70;0.60;;;14.40;99.90;;;;;;5064409;28;20450;-84
2024/04/05 08:48:56;;;;;;;0.50;0.40;;;14.40;99.90;;;;;;5057515;28;20455;-86
2024/04/05 08:51:25;;;;;;;0.70;0.60;;;14.40;99.90;;;;;;5058516;28;20442;-86
2024/04/05 08:53:52;;;;;;;0.60;0.60;;;14.30;99.90;;;;;;5056808;28;20522;-84
2024/04/05 08:56:19;;;;;;;2.30;1.13;;;14.30;99.90;;;;;;5055882;28;20439;-85
2024/04/05 08:58:45;;;;;;;0.50;0.40;;;14.40;99.90;;;;;;5055226;28;20468;-86
2024/04/05 09:01:14;;;;;;;2.80;0.70;;;14.40;99.90;;;;;;5056958;28;20470;-85
2024/04/05 09:03:43;;;;;;;0.50;0.40;;;14.50;99.90;;;;;;5055935;28;20483;-86
2024/04/05 09:06:14;;;;;;;0.87;0.80;;;14.60;99.90;;;;;;5054702;28;20444;-86
2024/04/05 09:08:44;;;;;;;0.67;0.67;;;14.70;99.90;;;;;;5055500;28;20456;-86
2024/04/05 09:11:19;;;;;;;0.60;0.53;;;14.70;99.90;;;;;;5052193;28;20447;-84
2024/04/05 09:13:56;;;;;;;0.93;0.50;;;14.80;99.90;;;;;;5055367;28;20816;-86
2024/04/05 09:16:27;;;;;;;1.73;1.27;;;14.90;99.90;;;;;;5055398;28;20490;-84
2024/04/05 09:19:08;;;;;;;0.60;0.50;;;15.00;99.90;;;;;;5055813;28;21057;-84
2024/04/05 09:21:34;;;;;;;1.17;0.60;;;15.10;99.90;;;;;;5055078;28;20986;-83
2024/04/05 09:24:02;;;;;;;2.37;1.20;;;15.10;99.90;;;;;;5054402;28;20484;-84
2024/04/05 09:26:30;;;;;;;0.50;0.50;;;15.30;99.90;;;;;;5069039;28;20438;-86
2024/04/05 09:28:58;;;;;;;5.17;1.23;;;15.50;99.90;;;;;;5074862;28;20537;-85
2024/04/05 09:31:25;;;;;;;0.60;0.50;;;15.50;99.90;;;;;;5075987;28;20534;-84
2024/04/05 09:34:04;;;;;;;0.90;0.60;;;15.60;99.90;;;;;;5075915;28;20930;-83
2024/04/05 09:36:33;;;;;;;1.27;0.87;;;15.70;99.90;;;;;;5074956;28;20504;-84
2024/04/05 09:39:05;;;;;;;1.50;1.40;;;15.80;99.90;;;;;;5073194;28;20464;-82
2024/04/05 09:41:34;;;;;;;0.50;0.40;;;15.90;99.90;;;;;;5084471;28;20439;-83
2024/04/05 09:44:02;;;;;;;2.87;0.87;;;16.00;99.90;;;;;;5081827;28;20532;-88
2024/04/05 09:46:29;;;;;;;0.70;0.70;;;16.00;99.90;;;;;;5081380;28;20429;-83
2024/04/05 09:48:55;;;;;;;0.80;0.80;;;16.10;99.90;;;;;;5078689;28;20456;-83
2024/04/05 09:51:26;;;;;;;0.73;0.67;;;16.20;99.90;;;;;;5077485;28;20953;-85
2024/04/05 09:53:53;;;;;;;0.93;0.93;;;16.20;99.90;;;;;;5078021;28;20573;-84
2024/04/05 09:56:25;;;;;;;0.57;0.50;;;16.10;99.90;;;;;;5078454;28;20503;-84
2024/04/05 09:58:53;;;;;;;0.60;0.40;;;16.00;99.90;;;;;;5080661;28;20827;-85
2024/04/05 10:01:21;;;;;;;0.50;0.40;;;15.80;99.90;;;;;;5078126;28;20444;-83
2024/04/05 10:03:49;;;;;;;0.50;0.40;;;15.40;99.90;;;;;;5080632;28;20478;-84
2024/04/05 10:06:19;;;;;;;0.50;0.50;;;15.20;99.90;;;;;;5077598;28;20454;-87
2024/04/05 10:08:46;;;;;;;0.50;0.40;;;15.10;99.90;;;;;;5079346;28;20463;-85
2024/04/05 10:11:14;;;;;;;1.27;0.90;;;15.10;99.90;;;;;;5080446;28;20443;-85
2024/04/05 10:13:42;;;;;;;0.80;0.60;;;15.30;99.90;;;;;;5077875;28;20443;-87
2024/04/05 10:16:09;;;;;;;2.20;2.10;;;15.30;99.90;;;;;;5077649;28;20468;-86
2024/04/05 10:18:38;;;;;;;0.80;0.80;;;15.30;99.90;;;;;;5082441;28;20974;-83
2024/04/05 10:21:08;;;;;;;11.33;1.43;;;15.30;99.90;;;;;;5080501;28;20528;-86
2024/04/05 10:23:34;;;;;;;0.70;0.60;;;15.40;99.90;;;;;;5080618;28;20538;-85
2024/04/05 10:26:03;;;;;;;1.43;1.00;;;15.50;99.90;;;;;;5077956;28;20443;-87
2024/04/05 10:28:29;;;;;;;7.60;1.33;;;15.60;99.90;;;;;;5063522;28;20538;-86
2024/04/05 10:31:01;;;;;;;0.60;0.50;;;15.70;99.90;;;;;;5081156;28;20471;-87
2024/04/05 10:33:27;;;;;;;0.50;0.37;;;15.70;99.90;;;;;;5081260;28;20466;-85
2024/04/05 10:35:59;;;;;;;1.23;1.13;;;15.80;99.90;;;;;;5083838;28;20442;-86
2024/04/05 10:38:27;;;;;;;0.80;0.63;;;15.90;99.90;;;;;;5083629;28;21031;-87
2024/04/05 10:40:58;;;;;;;7.17;1.27;;;15.90;99.90;;;;;;5085053;28;20450;-85
2024/04/05 10:43:24;;;;;;;1.00;0.80;;;16.00;99.90;;;;;;5086023;28;20472;-88
2024/04/05 10:45:54;;;;;;;0.53;0.47;;;16.10;99.90;;;;;;5085677;28;20491;-87
2024/04/05 10:48:22;;;;;;;0.50;0.40;;;16.20;99.90;;;;;;5087868;28;20222;-88
2024/04/05 10:50:49;;;;;;;4.93;0.93;;;16.20;99.90;;;;;;5097258;28;20479;-89
2024/04/05 10:53:16;;;;;;;0.50;0.40;;;16.30;99.90;;;;;;5096128;28;20443;-87
2024/04/05 10:55:45;;;;;;;0.50;0.50;;;16.30;99.90;;;;;;5090458;28;20443;-88
2024/04/05 10:58:13;;;;;;;0.50;0.40;;;16.20;99.90;;;;;;5084376;28;20527;-88
2024/04/05 11:00:40;;;;;;;0.50;0.33;;;16.10;99.90;;;;;;5085841;28;20514;-86
2024/04/05 11:03:10;;;;;;;0.63;0.60;;;16.00;99.90;;;;;;5085106;28;20494;-88
2024/04/05 11:05:37;;;;;;;0.57;0.50;;;16.00;99.90;;;;;;5084215;28;20531;-85
2024/04/05 11:08:08;;;;;;;1.63;0.77;;;16.10;99.90;;;;;;5087959;28;20529;-87
2024/04/05 11:10:34;;;;;;;0.50;0.40;;;16.10;99.90;;;;;;5089382;28;20478;-86
2024/04/05 11:13:02;;;;;;;9.30;1.50;;;16.10;99.90;;;;;;5089093;28;20428;-87
2024/04/05 11:15:28;;;;;;;0.50;0.40;;;16.10;99.90;;;;;;5097092;28;20436;-83
2024/04/05 11:18:00;;;;;;;0.50;0.50;;;16.20;99.90;;;;;;5097854;28;20520;-85
2024/04/05 11:20:29;;;;;;;0.80;0.60;;;16.30;99.90;;;;;;5099255;28;20412;-83
2024/04/05 11:23:01;;;;;;;2.10;0.93;;;16.60;99.90;;;;;;5098881;28;20539;-85
2024/04/05 11:25:27;;;;;;;1.53;0.87;;;16.90;99.90;;;;;;5098271;28;20432;-85
2024/04/05 11:27:54;;;;;;;0.80;0.70;;;17.30;99.90;;;;;;5097563;28;20455;-84
2024/04/05 11:30:20;;;;;;;9.40;1.27;;;17.70;99.90;;;;;;5082091;28;20447;-86
2024/04/05 11:32:47;;;;;;;0.70;0.70;;;17.90;99.90;;;;;;5079469;28;20428;-84
2024/04/05 11:35:13;;;;;;;2.80;0.60;;;18.00;99.90;;;;;;5079610;28;20436;-85
2024/04/05 11:37:43;;;;;;;0.50;0.30;;;17.80;99.90;;;;;;5078519;28;20461;-85
2024/04/05 11:40:13;;;;;;;0.70;0.60;;;17.60;99.90;;;;;;5081711;28;20444;-87
2024/04/05 11:42:42;;;;;;;1.87;1.27;;;17.40;99.90;;;;;;5080711;28;20453;-84
2024/04/05 11:45:09;;;;;;;0.67;0.63;;;17.30;99.90;;;;;;5077067;28;20437;-84
2024/04/05 11:47:36;;;;;;;9.93;0.90;;;17.10;99.90;;;;;;5077631;28;20484;-84
2024/04/05 11:50:06;;;;;;;0.60;0.50;;;17.00;99.90;;;;;;5078168;28;20436;-83
2024/04/05 11:52:34;;;;;;;0.60;0.60;;;16.90;99.90;;;;;;5076272;28;20535;-84
2024/04/05 11:55:00;;;;;;;1.73;1.20;;;16.80;99.90;;;;;;5078243;28;20448;-84
2024/04/05 11:57:28;;;;;;;0.50;0.50;;;16.80;99.90;;;;;;5078092;28;20456;-86
2024/04/05 11:59:54;;;;;;;0.70;0.70;;;16.80;99.90;;;;;;5076059;28;20199;-87
2024/04/05 12:02:21;;;;;;;5.20;1.00;;;16.80;99.90;;;;;;5074821;28;20439;-87
2024/04/05 12:04:49;;;;;;;1.67;1.07;;;16.90;99.90;;;;;;5074723;28;20445;-86
2024/04/05 12:07:20;;;;;;;1.47;1.00;;;17.00;99.90;;;;;;5075237;28;20443;-85
2024/04/05 12:09:49;;;;;;;0.80;0.70;;;17.10;99.90;;;;;;5078224;28;20447;-86
2024/04/05 12:12:17;;;;;;;10.60;1.37;;;17.20;99.90;;;;;;5090298;28;20972;-86
2024/04/05 12:14:46;;;;;;;0.53;0.53;;;17.40;99.90;;;;;;5090816;28;20753;-85
2024/04/05 12:17:15;;;;;;;0.60;0.40;;;17.40;99.90;;;;;;5086914;28;20468;-86
2024/04/05 12:19:41;;;;;;;0.70;0.60;;;17.30;99.90;;;;;;5085305;28;20439;-86
2024/04/05 12:22:08;;;;;;;0.63;0.60;;;17.20;99.90;;;;;;5086307;28;20437;-86
2024/04/05 12:24:35;;;;;;;0.50;0.40;;;17.20;99.90;;;;;;5081861;28;20476;-83
2024/04/05 12:27:02;;;;;;;0.60;0.40;;;17.00;99.90;;;;;;5080060;28;20436;-83
2024/04/05 12:29:29;;;;;;;1.80;1.70;;;16.90;99.90;;;;;;5067934;28;20429;-84
2024/04/05 12:31:57;;;;;;;1.33;1.23;;;16.70;99.90;;;;;;5075669;28;20448;-85
2024/04/05 12:34:23;;;;;;;0.60;0.60;;;16.70;99.90;;;;;;5079356;28;20424;-88
2024/04/05 12:36:51;;;;;;;0.67;0.50;;;16.50;99.90;;;;;;5084964;28;20977;-87
2024/04/05 12:39:25;;;;;;;2.10;0.70;;;16.50;99.90;;;;;;5085452;28;20467;-86
2024/04/05 12:41:52;;;;;;;0.50;0.40;;;16.50;99.90;;;;;;5086463;28;20440;-88
2024/04/05 12:44:20;;;;;;;6.53;0.50;;;16.50;99.90;;;;;;5086822;28;20528;-87
2024/04/05 12:46:47;;;;;;;1.53;0.93;;;16.60;99.90;;;;;;5086980;28;20515;-86
2024/04/05 12:49:14;;;;;;;1.30;1.07;;;16.60;99.90;;;;;;5086448;28;20463;-86
2024/04/05 12:51:42;;;;;;;2.67;0.60;;;16.90;99.90;;;;;;5087352;28;20469;-86
2024/04/05 12:54:08;;;;;;;1.33;0.87;;;17.00;99.90;;;;;;5086549;28;20474;-86
2024/04/05 12:56:35;;;;;;;2.20;0.80;;;17.10;99.90;;;;;;5086862;28;20494;-85
2024/04/05 12:59:01;;;;;;;0.60;0.50;;;17.20;99.90;;;;;;5087622;28;20476;-86
2024/04/05 13:01:28;;;;;;;1.47;0.60;;;17.20;99.90;;;;;;5087442;28;20511;-86
2024/04/05 13:03:54;;;;;;;1.23;0.80;;;17.20;99.90;;;;;;5087328;28;20478;-86